Buffalo Gap, South Dakota
Current Conditions -  °F | °C
As of 6:53 PM on Saturday 22 Nov 2014 (Local Time) from KCUT Reporting Station
Clear Clear  
Wind Chill: 31°   Ceiling: Unl
Heat Index: 38°   Visibility: 10mi
Dew Point: 30°   Wind: 9mph
Humidity: 73%   Direction: 260°W
Pressure: 29.45"   Gusts: 22mph
Location:  43.49°N, 103.31°W
Report Text: KCUT 230153Z AUTO 26008G19KT 10SM CLR 03/M01 A2945 RMK AO2 SLP968 T00331011
Loading
Personal Weather Stations






























Interactive Weather Map New forecast layout! Learn more

10-Day Weather Forecast

Advertisements
Track Severe Weather on mobile